Time;durP1;ratioP1;P1;durP2;ratioP2;P2;SDS_P1;SDS_P2;PMS_P1;PMS_P2;Temp;Humidity;BMP_temperature;BMP_pressure;BME280_temperature;BME280_humidity;BME280_pressure;Samples;Min_cycle;Max_cycle;Signal;HPM_P1;HPM_P2
2022/07/23 00:01:55;;;;;;;2.73;0.90;;;16.30;99.20;;;;;;5016889;28;20235;-77
2022/07/23 00:04:22;;;;;;;4.27;1.17;;;16.20;99.10;;;;;;5000751;28;20236;-78
2022/07/23 00:06:50;;;;;;;2.83;1.03;;;16.20;99.10;;;;;;5002486;28;20224;-78
2022/07/23 00:09:17;;;;;;;3.60;1.43;;;16.20;99.20;;;;;;5000912;28;20241;-78
2022/07/23 00:11:43;;;;;;;1.63;0.73;;;16.20;99.10;;;;;;5003116;28;20233;-77
2022/07/23 00:14:10;;;;;;;1.63;1.00;;;16.10;99.10;;;;;;5010978;28;20236;-77
2022/07/23 00:16:37;;;;;;;1.63;0.93;;;16.10;99.10;;;;;;5017831;28;20223;-77
2022/07/23 00:19:03;;;;;;;3.00;1.13;;;16.10;99.10;;;;;;5002005;28;20319;-77
2022/07/23 00:21:30;;;;;;;2.40;0.93;;;16.10;99.10;;;;;;5016556;28;20225;-78
2022/07/23 00:23:58;;;;;;;4.00;1.00;;;16.10;99.10;;;;;;5001365;28;20232;-78
2022/07/23 00:26:25;;;;;;;4.10;1.20;;;16.10;99.30;;;;;;5001930;28;20890;-77
2022/07/23 00:28:51;;;;;;;2.90;1.43;;;16.10;99.30;;;;;;5001582;28;20220;-77
2022/07/23 00:31:18;;;;;;;3.07;1.10;;;16.10;99.30;;;;;;5002171;28;20263;-77
2022/07/23 00:33:45;;;;;;;4.50;1.20;;;16.10;99.30;;;;;;5001411;28;20221;-77
2022/07/23 00:36:12;;;;;;;5.80;1.10;;;16.10;99.40;;;;;;5001130;28;20773;-77
2022/07/23 00:38:38;;;;;;;2.53;1.07;;;16.10;99.40;;;;;;5001038;28;20236;-77
2022/07/23 00:41:06;;;;;;;3.47;1.00;;;16.10;99.50;;;;;;5015758;28;20234;-77
2022/07/23 00:43:33;;;;;;;1.90;0.90;;;16.10;99.50;;;;;;5000046;28;20222;-77
2022/07/23 00:46:00;;;;;;;3.47;1.10;;;16.10;99.40;;;;;;5000455;28;20228;-77
2022/07/23 00:48:26;;;;;;;3.00;1.10;;;16.10;99.30;;;;;;5000034;28;20259;-77
2022/07/23 00:50:53;;;;;;;2.10;1.07;;;16.10;99.30;;;;;;5000058;28;20704;-77
2022/07/23 00:53:21;;;;;;;2.80;1.20;;;16.10;99.40;;;;;;4999083;28;20232;-78
2022/07/23 00:55:48;;;;;;;2.87;1.00;;;16.00;99.40;;;;;;5001232;28;20280;-76
2022/07/23 00:58:17;;;;;;;2.17;0.93;;;16.00;99.30;;;;;;5000371;28;20728;-77
2022/07/23 01:00:44;;;;;;;1.17;0.90;;;16.00;99.30;;;;;;5001302;28;20733;-77
2022/07/23 01:03:11;;;;;;;1.60;1.00;;;16.00;99.30;;;;;;5015876;28;21029;-77
2022/07/23 01:05:38;;;;;;;1.77;0.80;;;16.00;99.30;;;;;;5002597;28;20598;-78
2022/07/23 01:08:07;;;;;;;3.30;0.90;;;16.00;99.20;;;;;;4999873;28;20227;-78
2022/07/23 01:10:34;;;;;;;1.90;0.73;;;16.00;99.10;;;;;;5000890;28;20228;-78
2022/07/23 01:13:03;;;;;;;2.50;0.87;;;16.00;99.10;;;;;;5001449;28;20231;-78
2022/07/23 01:15:32;;;;;;;1.43;0.80;;;15.90;99.20;;;;;;5000402;28;20238;-78
2022/07/23 01:17:59;;;;;;;3.67;1.03;;;15.90;99.20;;;;;;5016845;28;20744;-77
2022/07/23 01:20:27;;;;;;;2.73;0.80;;;15.90;99.20;;;;;;5016270;28;20890;-78
2022/07/23 01:22:56;;;;;;;2.27;1.10;;;15.90;99.20;;;;;;5015834;28;20233;-78
2022/07/23 01:25:23;;;;;;;2.50;1.03;;;15.80;99.30;;;;;;5015272;28;20295;-77
2022/07/23 01:27:57;;;;;;;1.73;0.77;;;15.80;99.30;;;;;;5016590;28;20240;-77
2022/07/23 01:30:24;;;;;;;2.63;1.03;;;15.80;99.30;;;;;;4999673;28;20237;-77
2022/07/23 01:32:51;;;;;;;3.33;1.10;;;15.80;99.40;;;;;;5015957;28;20251;-77
2022/07/23 01:35:19;;;;;;;1.20;0.77;;;15.70;99.40;;;;;;4999393;28;20610;-77
2022/07/23 01:37:46;;;;;;;2.63;0.90;;;15.70;99.40;;;;;;5016704;28;20633;-77
2022/07/23 01:40:14;;;;;;;2.40;0.87;;;15.60;99.50;;;;;;5015681;28;20278;-77
2022/07/23 01:42:42;;;;;;;4.23;1.03;;;15.60;99.60;;;;;;5000218;28;20231;-77
2022/07/23 01:45:11;;;;;;;2.23;1.00;;;15.60;99.70;;;;;;4999242;28;20236;-77
2022/07/23 01:47:40;;;;;;;3.50;1.13;;;15.50;99.80;;;;;;4998958;28;20283;-77
2022/07/23 01:50:08;;;;;;;2.20;0.80;;;15.50;99.90;;;;;;4999334;28;20247;-77
2022/07/23 01:52:44;;;;;;;3.47;1.10;;;15.50;99.90;;;;;;5016057;28;20230;-77
2022/07/23 01:55:11;;;;;;;1.33;0.90;;;15.50;99.90;;;;;;4998686;28;20942;-77
2022/07/23 01:57:42;;;;;;;3.70;1.30;;;15.40;99.90;;;;;;5015350;28;20236;-77
2022/07/23 02:00:12;;;;;;;3.43;1.30;;;15.40;99.90;;;;;;5016115;28;20256;-77
2022/07/23 02:02:48;;;;;;;3.00;1.03;;;15.40;99.90;;;;;;5001302;28;20225;-77
2022/07/23 02:05:14;;;;;;;2.17;0.90;;;15.40;99.90;;;;;;5015341;28;20240;-77
2022/07/23 02:07:42;;;;;;;1.90;0.93;;;15.40;99.90;;;;;;5016249;28;20236;-77
2022/07/23 02:10:09;;;;;;;2.90;0.90;;;15.40;99.90;;;;;;4999345;28;20272;-77
2022/07/23 02:12:38;;;;;;;2.20;0.90;;;15.40;99.90;;;;;;5015288;28;20219;-78
2022/07/23 02:15:07;;;;;;;2.40;0.93;;;15.40;99.90;;;;;;4999002;28;20235;-77
2022/07/23 02:17:34;;;;;;;2.80;0.93;;;15.40;99.90;;;;;;5015945;28;20304;-78
2022/07/23 02:20:02;;;;;;;1.93;0.90;;;15.40;99.90;;;;;;4999964;28;20227;-77
2022/07/23 02:22:29;;;;;;;2.80;0.90;;;15.40;99.90;;;;;;4998634;28;20276;-78
2022/07/23 02:24:55;;;;;;;1.00;0.80;;;15.40;99.90;;;;;;5017537;28;20232;-82
2022/07/23 02:27:22;;;;;;;3.83;1.10;;;15.30;99.90;;;;;;5023346;28;20242;-80
2022/07/23 02:29:49;;;;;;;2.97;0.97;;;15.40;99.90;;;;;;5023452;28;20305;-80
2022/07/23 02:32:18;;;;;;;2.73;0.87;;;15.40;99.90;;;;;;5023717;28;20235;-80
2022/07/23 02:34:44;;;;;;;4.90;1.10;;;15.40;99.90;;;;;;5023292;28;20238;-80
2022/07/23 02:37:11;;;;;;;3.07;1.00;;;15.40;99.90;;;;;;5006569;28;20240;-79
2022/07/23 02:39:38;;;;;;;2.87;0.93;;;15.40;99.90;;;;;;5022241;28;20695;-80
2022/07/23 02:42:05;;;;;;;3.23;1.10;;;15.30;99.90;;;;;;5007060;28;20284;-79
2022/07/23 02:44:34;;;;;;;1.13;0.90;;;15.30;99.90;;;;;;5021268;28;20239;-79
2022/07/23 02:47:01;;;;;;;3.17;1.13;;;15.30;99.90;;;;;;5005359;28;20620;-79
2022/07/23 02:49:29;;;;;;;4.80;1.13;;;15.30;99.90;;;;;;5018504;28;20232;-78
2022/07/23 02:51:56;;;;;;;2.87;1.10;;;15.30;99.90;;;;;;5003055;28;20594;-78
2022/07/23 02:54:22;;;;;;;1.63;0.90;;;15.20;99.90;;;;;;5018754;28;20236;-78
2022/07/23 02:56:50;;;;;;;2.73;0.83;;;15.20;99.90;;;;;;5020413;28;20303;-78
2022/07/23 02:59:17;;;;;;;2.13;0.87;;;15.10;99.90;;;;;;5020304;28;20235;-79
2022/07/23 03:01:43;;;;;;;1.50;0.80;;;15.10;99.90;;;;;;5022428;28;20320;-78
2022/07/23 03:04:10;;;;;;;2.90;1.00;;;15.00;99.90;;;;;;5007144;28;20731;-79
2022/07/23 03:06:38;;;;;;;4.00;1.10;;;15.00;99.90;;;;;;5023728;28;20256;-79
2022/07/23 03:09:07;;;;;;;4.13;1.10;;;14.90;99.90;;;;;;5021998;28;20244;-80
2022/07/23 03:11:33;;;;;;;1.33;1.03;;;14.80;99.90;;;;;;5006023;28;20274;-79
2022/07/23 03:14:00;;;;;;;3.13;1.07;;;14.80;99.90;;;;;;5004892;28;20228;-79
2022/07/23 03:16:27;;;;;;;3.10;1.20;;;14.70;99.90;;;;;;5021212;28;20231;-79
2022/07/23 03:18:53;;;;;;;5.80;1.20;;;14.60;99.90;;;;;;5004839;28;20598;-79
2022/07/23 03:21:20;;;;;;;3.83;0.90;;;14.60;99.90;;;;;;5020298;28;20306;-80
2022/07/23 03:23:48;;;;;;;2.13;0.97;;;14.50;99.90;;;;;;5019818;28;20894;-79
2022/07/23 03:26:15;;;;;;;3.90;1.10;;;14.50;99.90;;;;;;5004291;28;20724;-80
2022/07/23 03:28:42;;;;;;;4.97;1.20;;;14.40;99.90;;;;;;5004035;28;20282;-79
2022/07/23 03:31:09;;;;;;;3.90;1.30;;;14.40;99.90;;;;;;5022496;28;20230;-79
2022/07/23 03:33:37;;;;;;;2.77;1.37;;;14.40;99.90;;;;;;5021892;28;20302;-79
2022/07/23 03:36:04;;;;;;;2.63;1.37;;;14.40;99.90;;;;;;5021627;28;20227;-79
2022/07/23 03:38:33;;;;;;;4.37;1.23;;;14.40;99.90;;;;;;5019321;28;20252;-79
2022/07/23 03:41:01;;;;;;;3.90;1.33;;;14.40;99.90;;;;;;5002327;28;20228;-79
2022/07/23 03:43:28;;;;;;;2.77;1.00;;;14.40;99.90;;;;;;5016595;28;20226;-79
2022/07/23 03:45:55;;;;;;;3.60;1.20;;;14.40;99.90;;;;;;5004384;28;20232;-77
2022/07/23 03:48:21;;;;;;;3.93;1.27;;;14.50;99.90;;;;;;5002508;28;20258;-78
2022/07/23 03:50:48;;;;;;;3.70;1.00;;;14.50;99.90;;;;;;5004540;28;20307;-79
2022/07/23 03:53:16;;;;;;;2.37;1.23;;;14.50;99.90;;;;;;5003911;28;20342;-80
2022/07/23 03:55:43;;;;;;;4.80;1.23;;;14.60;99.90;;;;;;5004152;28;20228;-79
2022/07/23 03:58:11;;;;;;;5.83;1.47;;;14.60;99.90;;;;;;5003666;28;20235;-79
2022/07/23 04:00:37;;;;;;;2.27;1.10;;;14.60;99.90;;;;;;5002736;28;20591;-80
2022/07/23 04:03:05;;;;;;;3.07;1.20;;;14.70;99.90;;;;;;5010689;28;20236;-78
2022/07/23 04:05:33;;;;;;;2.20;1.07;;;14.70;99.90;;;;;;4983107;28;20229;-78
2022/07/23 04:08:06;;;;;;;2.40;1.50;;;14.70;99.90;;;;;;5015778;28;20232;-78
2022/07/23 04:10:34;;;;;;;2.80;1.20;;;14.70;99.90;;;;;;4984086;28;20312;-77
2022/07/23 04:13:01;;;;;;;2.43;1.33;;;14.70;99.90;;;;;;4982896;28;20295;-78
2022/07/23 04:15:29;;;;;;;2.30;1.30;;;14.70;99.90;;;;;;4983392;28;20236;-78
2022/07/23 04:17:56;;;;;;;2.20;1.20;;;14.70;99.90;;;;;;4982632;28;20738;-77
2022/07/23 04:20:28;;;;;;;1.90;1.00;;;14.70;99.90;;;;;;4983307;28;20240;-78
2022/07/23 04:22:58;;;;;;;2.17;1.03;;;14.70;99.90;;;;;;4983028;28;20235;-78
2022/07/23 04:25:25;;;;;;;1.83;1.10;;;14.70;99.90;;;;;;4982355;28;20234;-78
2022/07/23 04:27:52;;;;;;;2.33;1.00;;;14.70;99.90;;;;;;4983741;28;20261;-78
2022/07/23 04:30:19;;;;;;;5.00;1.50;;;14.80;99.90;;;;;;4983414;28;20230;-78
2022/07/23 04:32:47;;;;;;;3.87;0.83;;;14.80;99.90;;;;;;4983159;28;20313;-78
2022/07/23 04:35:20;;;;;;;3.23;1.60;;;15.00;99.90;;;;;;4982490;28;20318;-78
2022/07/23 04:37:47;;;;;;;2.97;1.10;;;15.00;99.90;;;;;;4982592;28;20232;-77
2022/07/23 04:40:14;;;;;;;3.83;1.33;;;15.10;99.90;;;;;;4981624;28;20233;-77
2022/07/23 04:42:42;;;;;;;1.47;0.90;;;15.20;99.90;;;;;;4982537;28;21068;-79
2022/07/23 04:45:10;;;;;;;3.63;1.03;;;15.20;99.90;;;;;;4982560;28;20751;-77
2022/07/23 04:47:37;;;;;;;2.67;0.93;;;15.30;99.90;;;;;;4982302;28;20227;-78
2022/07/23 04:50:06;;;;;;;1.57;1.10;;;15.30;99.90;;;;;;4981394;28;20289;-77
2022/07/23 04:52:33;;;;;;;3.83;1.33;;;15.30;99.90;;;;;;4981745;28;20800;-78
2022/07/23 04:54:59;;;;;;;3.27;1.10;;;15.40;99.90;;;;;;4981950;28;20299;-78
2022/07/23 04:57:26;;;;;;;3.80;1.50;;;15.40;99.90;;;;;;4981799;28;20289;-78
2022/07/23 04:59:53;;;;;;;5.43;1.47;;;15.40;99.90;;;;;;4982190;28;20231;-78
2022/07/23 05:02:20;;;;;;;2.27;1.00;;;15.40;99.90;;;;;;4980758;28;20769;-78
2022/07/23 05:04:47;;;;;;;3.33;1.03;;;15.40;99.90;;;;;;4981137;28;21004;-78
2022/07/23 05:07:15;;;;;;;3.27;1.43;;;15.50;99.90;;;;;;4982021;28;20318;-77
2022/07/23 05:09:42;;;;;;;1.67;1.20;;;15.50;99.90;;;;;;4981265;28;20393;-77
2022/07/23 05:12:09;;;;;;;2.00;1.30;;;15.50;99.90;;;;;;4981692;28;20254;-76
2022/07/23 05:14:36;;;;;;;6.43;1.60;;;15.50;99.90;;;;;;4980907;28;20231;-76
2022/07/23 05:17:03;;;;;;;7.43;1.47;;;15.40;99.90;;;;;;4983147;28;20229;-76
2022/07/23 05:19:30;;;;;;;5.33;1.80;;;15.40;99.90;;;;;;4997493;28;20896;-76
2022/07/23 05:21:57;;;;;;;1.90;1.00;;;15.40;99.90;;;;;;4982533;28;20343;-76
2022/07/23 05:24:25;;;;;;;3.73;1.23;;;15.30;99.90;;;;;;4982343;28;20230;-76
2022/07/23 05:26:52;;;;;;;1.70;1.00;;;15.30;99.90;;;;;;4982189;28;20319;-77
2022/07/23 05:29:20;;;;;;;2.93;1.00;;;15.40;99.90;;;;;;4980449;28;20231;-76
2022/07/23 05:31:46;;;;;;;2.93;1.40;;;15.30;99.90;;;;;;4981931;28;20230;-76
2022/07/23 05:34:14;;;;;;;1.60;0.90;;;15.30;99.90;;;;;;4980674;28;20236;-76
2022/07/23 05:36:40;;;;;;;2.77;1.20;;;15.30;99.90;;;;;;4982379;28;20228;-77
2022/07/23 05:39:07;;;;;;;3.13;1.20;;;15.20;99.90;;;;;;4980480;28;20275;-77
2022/07/23 05:41:38;;;;;;;2.13;1.00;;;15.20;99.90;;;;;;4981892;28;20776;-77
2022/07/23 05:44:05;;;;;;;3.03;1.30;;;15.20;99.90;;;;;;4979496;28;20244;-76
2022/07/23 05:46:32;;;;;;;2.83;1.37;;;15.30;99.90;;;;;;4987965;28;20298;-78
2022/07/23 05:49:05;;;;;;;2.27;1.10;;;15.30;99.90;;;;;;4982425;28;20872;-78
2022/07/23 05:51:50;;;;;;;1.77;1.00;;;15.30;99.90;;;;;;4985463;28;20268;-79
2022/07/23 05:54:24;;;;;;;1.67;0.90;;;15.40;99.90;;;;;;4987180;28;20236;-79
2022/07/23 05:56:52;;;;;;;0.93;0.80;;;15.50;99.90;;;;;;5021270;28;20711;-80
2022/07/23 05:59:19;;;;;;;1.70;1.00;;;15.50;99.90;;;;;;4998461;28;20236;-79
2022/07/23 06:01:46;;;;;;;2.13;1.10;;;15.60;99.90;;;;;;5003756;28;20222;-79
2022/07/23 06:04:13;;;;;;;2.13;0.90;;;15.70;99.90;;;;;;5019197;28;20238;-80
2022/07/23 06:06:49;;;;;;;2.13;1.00;;;15.80;99.90;;;;;;5022463;28;20223;-80
2022/07/23 06:09:16;;;;;;;2.50;1.00;;;16.00;99.90;;;;;;5005887;28;20237;-80
2022/07/23 06:11:42;;;;;;;3.27;1.00;;;16.00;99.90;;;;;;5007050;28;20289;-81
2022/07/23 06:14:11;;;;;;;1.90;0.90;;;16.10;99.90;;;;;;5005423;28;20813;-80
2022/07/23 06:16:57;;;;;;;3.37;0.90;;;16.20;99.90;;;;;;5024783;28;20291;-79
2022/07/23 06:19:24;;;;;;;3.27;0.80;;;16.40;99.90;;;;;;5023555;28;20258;-79
2022/07/23 06:21:51;;;;;;;1.17;0.90;;;16.40;99.90;;;;;;5003815;28;20298;-77
2022/07/23 06:24:19;;;;;;;3.63;0.83;;;16.60;99.90;;;;;;4984615;28;20241;-81
2022/07/23 06:26:46;;;;;;;1.77;0.90;;;16.60;99.90;;;;;;4987792;28;20227;-81
2022/07/23 06:29:14;;;;;;;1.60;0.90;;;16.70;99.90;;;;;;4988818;28;20304;-80
2022/07/23 06:31:42;;;;;;;1.70;0.83;;;16.80;99.90;;;;;;4986839;28;20232;-81
2022/07/23 06:34:09;;;;;;;2.13;0.90;;;16.90;99.90;;;;;;4983941;28;20320;-79
2022/07/23 06:36:36;;;;;;;0.87;0.70;;;17.10;99.90;;;;;;5005818;28;20228;-83
2022/07/23 06:39:03;;;;;;;2.27;0.90;;;17.20;99.90;;;;;;4986678;28;20237;-79
2022/07/23 06:41:30;;;;;;;1.80;1.20;;;17.30;99.90;;;;;;4989026;28;20220;-78
2022/07/23 06:43:56;;;;;;;3.57;1.10;;;17.40;99.90;;;;;;5018750;28;20228;-78
2022/07/23 06:46:25;;;;;;;4.20;1.13;;;17.40;99.90;;;;;;5023508;28;20237;-79
2022/07/23 06:48:52;;;;;;;3.03;0.90;;;17.50;99.90;;;;;;5008029;28;20228;-80
2022/07/23 06:51:18;;;;;;;2.93;0.93;;;17.60;99.90;;;;;;5023792;28;20323;-80
2022/07/23 06:53:45;;;;;;;2.33;1.10;;;17.60;99.90;;;;;;5007076;28;20237;-85
2022/07/23 06:56:12;;;;;;;1.07;0.70;;;17.80;99.80;;;;;;5005743;28;20818;-85
2022/07/23 06:58:40;;;;;;;3.30;1.07;;;17.90;99.60;;;;;;5044699;28;20228;-85
2022/07/23 07:01:06;;;;;;;1.23;0.70;;;17.90;99.40;;;;;;5006173;28;20236;-84
2022/07/23 07:03:34;;;;;;;2.40;0.70;;;18.00;99.30;;;;;;5021872;27;20233;-82
2022/07/23 07:06:02;;;;;;;2.53;0.67;;;18.10;99.10;;;;;;5002862;28;20314;-82
2022/07/23 07:08:29;;;;;;;3.03;0.80;;;18.20;98.80;;;;;;5009228;28;20226;-84
2022/07/23 07:10:55;;;;;;;1.57;0.50;;;18.20;98.60;;;;;;5021098;28;20251;-82
2022/07/23 07:13:22;;;;;;;1.03;0.50;;;18.30;98.50;;;;;;5034160;28;20266;-83
2022/07/23 07:15:49;;;;;;;2.20;0.53;;;18.30;98.10;;;;;;5011432;28;20238;-83
2022/07/23 07:18:15;;;;;;;2.13;0.83;;;18.30;97.80;;;;;;5007876;28;20700;-83
2022/07/23 07:20:43;;;;;;;1.37;0.77;;;18.30;97.60;;;;;;5008208;28;20232;-82
2022/07/23 07:23:10;;;;;;;2.43;0.87;;;18.30;97.60;;;;;;5009038;28;20238;-83
2022/07/23 07:25:37;;;;;;;2.03;0.70;;;18.20;98.10;;;;;;5016175;28;21067;-83
2022/07/23 07:28:04;;;;;;;2.90;0.80;;;18.20;98.30;;;;;;5006114;28;20225;-83
2022/07/23 07:30:31;;;;;;;1.53;0.70;;;18.10;98.50;;;;;;5016511;28;20228;-83
2022/07/23 07:32:58;;;;;;;3.67;0.70;;;18.10;98.50;;;;;;5020261;28;20225;-85
2022/07/23 07:35:25;;;;;;;3.87;0.70;;;18.10;98.30;;;;;;5017462;28;20321;-83
2022/07/23 07:37:53;;;;;;;2.27;0.77;;;18.10;98.10;;;;;;5007964;28;20267;-85
2022/07/23 07:40:20;;;;;;;2.20;0.70;;;18.20;98.20;;;;;;5012804;28;20229;-82
2022/07/23 07:42:47;;;;;;;2.37;0.60;;;18.30;98.20;;;;;;5023883;28;20237;-83
2022/07/23 07:45:15;;;;;;;3.17;0.70;;;18.40;97.90;;;;;;5009200;28;20741;-82
2022/07/23 07:47:41;;;;;;;1.70;0.70;;;18.50;98.50;;;;;;5007306;28;20225;-82
2022/07/23 07:50:09;;;;;;;1.10;0.70;;;18.40;98.80;;;;;;5013884;28;20847;-84
2022/07/23 07:52:37;;;;;;;2.57;0.90;;;18.40;99.20;;;;;;5010366;28;20224;-83
2022/07/23 07:55:06;;;;;;;0.87;0.70;;;18.20;99.50;;;;;;5027752;28;20227;-83
2022/07/23 07:57:32;;;;;;;1.47;0.77;;;17.90;99.60;;;;;;5000354;28;20621;-84
2022/07/23 07:59:59;;;;;;;1.53;1.00;;;17.70;99.90;;;;;;5001552;28;20280;-85
2022/07/23 08:02:26;;;;;;;2.07;0.80;;;17.50;99.90;;;;;;5010804;28;20239;-86
2022/07/23 08:04:53;;;;;;;1.27;0.70;;;17.40;99.90;;;;;;5004660;28;20308;-82
2022/07/23 08:07:20;;;;;;;1.97;0.67;;;17.30;99.90;;;;;;5027154;27;20228;-87
2022/07/23 08:09:46;;;;;;;2.10;0.70;;;17.40;99.90;;;;;;5017813;28;20877;-84
2022/07/23 08:12:14;;;;;;;0.90;0.57;;;17.60;99.90;;;;;;5037266;28;20224;-88
2022/07/23 08:14:41;;;;;;;1.87;0.60;;;17.90;99.90;;;;;;5018416;28;20225;-85
2022/07/23 08:17:08;;;;;;;0.90;0.60;;;18.30;99.90;;;;;;5023245;28;20305;-85
2022/07/23 08:19:35;;;;;;;1.02;0.70;;;18.80;99.90;;;;;;5005248;28;20304;-84
2022/07/23 08:22:01;;;;;;;2.47;0.68;;;19.30;99.90;;;;;;5016390;28;20230;-86
2022/07/23 08:24:28;;;;;;;1.98;0.60;;;19.80;99.90;;;;;;5049839;27;20222;-85
2022/07/23 08:26:55;;;;;;;2.42;0.90;;;20.30;99.90;;;;;;5001659;28;20229;-86
2022/07/23 08:29:23;;;;;;;1.77;0.65;;;20.70;99.90;;;;;;5008470;28;20222;-85
2022/07/23 08:31:49;;;;;;;1.17;0.50;;;21.20;99.90;;;;;;5031770;28;20215;-83
2022/07/23 08:34:16;;;;;;;1.42;0.57;;;21.70;99.20;;;;;;4998730;28;20254;-85
2022/07/23 08:36:43;;;;;;;2.90;0.75;;;21.90;97.90;;;;;;5005300;28;20282;-83
2022/07/23 08:39:09;;;;;;;1.27;0.60;;;22.00;96.60;;;;;;5008778;27;20781;-83
2022/07/23 08:41:36;;;;;;;0.80;0.50;;;21.70;96.20;;;;;;5016063;28;20230;-83
2022/07/23 08:44:03;;;;;;;1.87;0.77;;;21.40;95.70;;;;;;5001299;28;20229;-84
2022/07/23 08:46:31;;;;;;;2.87;0.60;;;20.90;95.60;;;;;;5006608;28;20228;-85
2022/07/23 08:48:59;;;;;;;2.10;0.60;;;20.50;95.90;;;;;;5026544;28;20239;-83
2022/07/23 08:51:28;;;;;;;1.37;0.80;;;20.10;96.00;;;;;;5010628;28;20300;-84
2022/07/23 08:53:57;;;;;;;2.07;0.70;;;19.70;96.60;;;;;;5011212;28;20226;-82
2022/07/23 08:56:24;;;;;;;1.23;0.67;;;19.50;97.20;;;;;;5004357;28;20221;-84
2022/07/23 08:58:51;;;;;;;1.93;0.83;;;19.20;97.50;;;;;;5000440;28;20305;-86
2022/07/23 09:01:18;;;;;;;21.53;3.27;;;19.10;97.60;;;;;;5019187;28;20350;-83
2022/07/23 09:03:46;;;;;;;2.17;0.60;;;19.00;97.70;;;;;;5012900;28;20229;-85
2022/07/23 09:06:13;;;;;;;2.30;0.83;;;18.90;98.10;;;;;;5003222;28;20229;-83
2022/07/23 09:08:41;;;;;;;2.57;0.70;;;18.90;98.20;;;;;;5003287;28;20241;-84
2022/07/23 09:11:09;;;;;;;2.27;0.40;;;19.00;97.90;;;;;;4998206;28;20663;-84
2022/07/23 09:13:40;;;;;;;2.63;0.60;;;19.30;97.50;;;;;;5000389;28;20222;-82
2022/07/23 09:16:10;;;;;;;1.65;0.50;;;19.40;97.20;;;;;;5004426;28;20229;-83
2022/07/23 09:18:44;;;;;;;1.80;0.53;;;19.60;96.40;;;;;;4995636;28;20214;-83
2022/07/23 09:21:31;;;;;;;1.02;0.43;;;19.90;96.00;;;;;;4994093;28;20585;-84
2022/07/23 09:24:01;;;;;;;1.45;0.50;;;20.20;95.50;;;;;;5010142;28;20245;-85
2022/07/23 09:26:31;;;;;;;0.82;0.40;;;20.50;95.70;;;;;;5008378;28;20593;-85
2022/07/23 09:29:02;;;;;;;0.38;0.32;;;20.80;95.00;;;;;;4991850;28;20284;-85
2022/07/23 09:31:34;;;;;;;2.00;0.50;;;21.10;94.30;;;;;;5029062;28;20228;-83
2022/07/23 09:34:12;;;;;;;0.82;0.43;;;21.30;93.70;;;;;;4989711;28;20265;-85
2022/07/23 09:36:40;;;;;;;1.38;0.40;;;21.50;93.60;;;;;;5000610;28;20667;-83
2022/07/23 09:39:08;;;;;;;0.70;0.50;;;21.70;93.20;;;;;;5000696;28;20313;-84
2022/07/23 09:41:37;;;;;;;0.88;0.55;;;21.90;92.90;;;;;;5018867;28;20225;-83
2022/07/23 09:44:10;;;;;;;0.80;0.40;;;22.10;92.20;;;;;;4999061;28;20260;-84
2022/07/23 09:46:36;;;;;;;1.60;0.57;;;22.30;91.90;;;;;;5009902;28;20251;-84
2022/07/23 09:49:19;;;;;;;0.90;0.40;;;22.50;92.00;;;;;;5016751;28;20695;-84
2022/07/23 09:51:49;;;;;;;1.33;0.55;;;22.60;91.00;;;;;;5001959;28;20889;-85
2022/07/23 09:54:34;;;;;;;1.08;0.50;;;22.60;90.70;;;;;;4991178;28;20233;-84
2022/07/23 09:57:04;;;;;;;0.85;0.50;;;22.60;90.10;;;;;;5002220;28;20278;-82
2022/07/23 09:59:34;;;;;;;1.83;0.50;;;22.60;90.60;;;;;;4998987;28;20237;-85
2022/07/23 10:02:02;;;;;;;1.45;0.47;;;22.60;90.20;;;;;;5008793;28;20293;-85
2022/07/23 10:04:34;;;;;;;1.23;0.65;;;22.40;90.10;;;;;;4999805;28;21159;-82
2022/07/23 10:07:29;;;;;;;2.08;0.85;;;22.40;89.30;;;;;;5004513;28;21360;-86
2022/07/23 10:10:16;;;;;;;1.00;0.68;;;22.10;89.10;;;;;;5000652;28;20375;-87
2022/07/23 10:15:43;;;;;;;0.57;0.40;;;21.60;90.20;;;;;;4996332;28;20270;-87
2022/07/23 10:18:12;;;;;;;1.02;0.63;;;21.50;90.70;;;;;;5002913;28;20326;-84
2022/07/23 10:20:39;;;;;;;0.82;0.40;;;21.40;90.50;;;;;;5006014;28;20221;-87
2022/07/23 10:23:15;;;;;;;0.73;0.55;;;21.30;90.60;;;;;;5002694;28;20225;-85
2022/07/23 10:25:46;;;;;;;1.77;0.50;;;21.30;90.50;;;;;;4999142;28;20233;-86
2022/07/23 10:28:32;;;;;;;1.40;0.70;;;21.20;90.20;;;;;;5021544;27;20222;-86
2022/07/23 10:31:07;;;;;;;2.15;0.68;;;21.10;90.10;;;;;;5000422;28;20229;-86
2022/07/23 10:33:42;;;;;;;0.82;0.40;;;21.00;90.50;;;;;;5001626;28;20228;-86
2022/07/23 10:36:21;;;;;;;1.38;0.57;;;20.90;90.90;;;;;;4999649;28;20715;-85
2022/07/23 10:38:56;;;;;;;0.70;0.50;;;20.80;90.80;;;;;;5001499;28;20300;-86
2022/07/23 10:41:32;;;;;;;2.70;0.70;;;20.70;90.90;;;;;;5002196;28;20228;-85
2022/07/23 10:44:10;;;;;;;3.55;0.55;;;20.50;91.20;;;;;;4990528;28;20226;-85
2022/07/23 10:46:54;;;;;;;1.42;0.52;;;20.40;91.50;;;;;;4999194;28;20752;-86
2022/07/23 10:49:29;;;;;;;2.15;0.50;;;20.30;91.90;;;;;;5007406;28;20213;-86
2022/07/23 10:52:21;;;;;;;1.90;0.70;;;20.40;92.00;;;;;;5004776;28;20797;-85
2022/07/23 10:54:51;;;;;;;1.92;0.60;;;20.60;91.70;;;;;;5006196;27;20450;-86
2022/07/23 10:57:19;;;;;;;0.82;0.40;;;20.80;91.80;;;;;;5028680;27;20226;-84
2022/07/23 11:00:16;;;;;;;0.52;0.40;;;21.00;91.80;;;;;;5000235;28;20312;-85
2022/07/23 11:02:45;;;;;;;0.80;0.50;;;21.30;90.70;;;;;;5006145;28;20299;-86
2022/07/23 11:05:13;;;;;;;0.65;0.50;;;21.50;89.90;;;;;;5002616;28;20320;-85
2022/07/23 11:08:25;;;;;;;1.23;0.70;;;21.50;89.20;;;;;;5003816;28;20302;-86
2022/07/23 11:10:56;;;;;;;2.08;0.50;;;21.60;88.60;;;;;;5000206;28;20222;-86
2022/07/23 11:13:33;;;;;;;1.85;0.60;;;21.80;89.40;;;;;;4998403;28;20244;-86
2022/07/23 11:16:31;;;;;;;1.63;0.50;;;21.90;89.20;;;;;;5002980;28;20245;-87
2022/07/23 11:19:08;;;;;;;4.38;1.05;;;22.00;89.90;;;;;;5006029;28;20223;-87
2022/07/23 11:21:51;;;;;;;1.50;0.45;;;22.20;89.90;;;;;;4997242;28;20252;-87
2022/07/23 11:24:23;;;;;;;1.15;0.50;;;22.30;89.60;;;;;;4985347;28;20328;-85
2022/07/23 11:27:06;;;;;;;0.98;0.50;;;22.30;88.50;;;;;;5004203;28;20217;-87
2022/07/23 11:29:48;;;;;;;0.82;0.60;;;22.20;88.30;;;;;;5021870;28;20235;-88
2022/07/23 11:32:37;;;;;;;1.33;0.52;;;22.00;89.10;;;;;;5005985;27;20558;-87
2022/07/23 11:35:20;;;;;;;1.80;0.70;;;21.90;89.30;;;;;;5002345;28;20226;-87
2022/07/23 11:37:48;;;;;;;2.50;0.70;;;21.70;89.60;;;;;;5004880;28;20221;-87
2022/07/23 11:40:17;;;;;;;1.48;0.50;;;21.60;90.00;;;;;;5013295;28;20244;-88
2022/07/23 11:42:58;;;;;;;1.05;0.47;;;21.50;90.20;;;;;;5003713;28;20241;-87
2022/07/23 11:45:27;;;;;;;1.23;0.60;;;21.40;90.20;;;;;;4994519;28;20252;-87
2022/07/23 11:47:54;;;;;;;2.03;0.40;;;21.40;90.40;;;;;;5027344;28;20217;-86
2022/07/23 11:50:24;;;;;;;1.08;0.50;;;21.50;90.40;;;;;;5004450;28;20226;-86
2022/07/23 11:52:51;;;;;;;1.40;0.40;;;21.50;90.20;;;;;;4993263;28;20233;-86
2022/07/23 11:55:19;;;;;;;0.43;0.40;;;21.60;90.30;;;;;;4999460;28;21309;-84
2022/07/23 11:57:46;;;;;;;0.80;0.35;;;21.70;90.20;;;;;;5003605;28;20915;-84
2022/07/23 12:00:17;;;;;;;1.35;0.40;;;21.90;90.10;;;;;;4997675;28;20237;-85
2022/07/23 12:02:45;;;;;;;1.95;0.40;;;22.00;88.40;;;;;;5014543;28;20225;-85
2022/07/23 12:05:13;;;;;;;1.00;0.57;;;22.10;88.60;;;;;;4994113;28;20240;-85
2022/07/23 12:07:44;;;;;;;4.20;0.70;;;22.30;87.90;;;;;;5005903;28;20223;-86
2022/07/23 12:10:13;;;;;;;1.13;0.57;;;22.40;88.10;;;;;;5003288;28;20222;-86
2022/07/23 12:12:42;;;;;;;0.82;0.50;;;22.60;89.00;;;;;;5005906;28;20247;-86
2022/07/23 12:15:10;;;;;;;2.95;0.90;;;22.80;89.40;;;;;;4996979;28;20225;-84
2022/07/23 12:17:41;;;;;;;1.23;0.85;;;23.20;88.40;;;;;;5003919;28;20227;-86
2022/07/23 12:20:10;;;;;;;2.60;0.85;;;23.50;86.50;;;;;;4998832;28;20744;-86
2022/07/23 12:22:40;;;;;;;1.73;0.60;;;23.70;84.20;;;;;;5016081;27;20229;-86
2022/07/23 12:25:10;;;;;;;1.00;0.47;;;23.80;83.50;;;;;;5002272;28;20257;-84
2022/07/23 12:27:37;;;;;;;2.42;0.60;;;23.80;82.30;;;;;;5003504;28;20217;-85
2022/07/23 12:30:23;;;;;;;3.60;0.70;;;23.70;81.40;;;;;;5006961;28;20313;-84
2022/07/23 12:32:53;;;;;;;6.38;2.22;;;23.60;82.00;;;;;;5004571;28;21003;-85
2022/07/23 12:35:21;;;;;;;2.38;1.50;;;23.60;81.20;;;;;;4994624;28;20225;-85
2022/07/23 12:37:52;;;;;;;3.70;1.00;;;23.50;82.10;;;;;;5006865;28;20228;-85
2022/07/23 12:40:29;;;;;;;1.30;0.70;;;23.60;83.00;;;;;;4997370;28;20627;-85
2022/07/23 12:42:59;;;;;;;1.58;0.70;;;23.50;82.50;;;;;;5005559;28;20221;-84
2022/07/23 12:45:26;;;;;;;1.70;0.68;;;23.60;82.70;;;;;;5029825;28;20826;-85
2022/07/23 12:47:58;;;;;;;1.88;0.80;;;23.60;82.20;;;;;;5019680;28;20239;-84
2022/07/23 12:50:45;;;;;;;2.28;0.60;;;23.60;81.70;;;;;;5000403;28;20233;-84
2022/07/23 12:53:15;;;;;;;2.03;1.10;;;23.60;81.50;;;;;;5001184;28;20240;-83
2022/07/23 12:55:43;;;;;;;1.77;1.00;;;23.60;80.80;;;;;;5004606;28;20228;-84
2022/07/23 12:58:13;;;;;;;4.60;1.00;;;23.50;79.60;;;;;;5002761;28;20312;-85
2022/07/23 13:01:02;;;;;;;1.75;0.82;;;23.50;79.90;;;;;;5011860;28;20221;-86
2022/07/23 13:03:33;;;;;;;2.97;1.20;;;23.50;81.30;;;;;;4999840;28;20229;-85